sensor_id;sensor_type;location;lat;lon;timestamp;P1;durP1;ratioP1;P2;durP2;ratioP2
10582;SDS011;33679;51.218;6.786;2023-02-15T00:00:01;28.17;;;13.57;;
10582;SDS011;33679;51.218;6.786;2023-02-15T00:02:35;26.33;;;12.27;;
10582;SDS011;33679;51.218;6.786;2023-02-15T00:05:09;25.57;;;13.57;;
10582;SDS011;33679;51.218;6.786;2023-02-15T00:07:42;25.93;;;11.40;;
10582;SDS011;33679;51.218;6.786;2023-02-15T00:10:14;35.63;;;15.13;;
10582;SDS011;33679;51.218;6.786;2023-02-15T00:12:47;25.00;;;12.97;;
10582;SDS011;33679;51.218;6.786;2023-02-15T00:15:20;26.03;;;13.37;;
10582;SDS011;33679;51.218;6.786;2023-02-15T00:18:06;24.37;;;13.53;;
10582;SDS011;33679;51.218;6.786;2023-02-15T00:20:46;23.67;;;12.77;;
10582;SDS011;33679;51.218;6.786;2023-02-15T00:23:28;23.50;;;12.00;;
10582;SDS011;33679;51.218;6.786;2023-02-15T00:26:10;26.70;;;12.30;;
10582;SDS011;33679;51.218;6.786;2023-02-15T00:28:46;23.90;;;12.50;;
10582;SDS011;33679;51.218;6.786;2023-02-15T00:31:18;27.90;;;12.60;;
10582;SDS011;33679;51.218;6.786;2023-02-15T00:33:51;24.20;;;13.27;;
10582;SDS011;33679;51.218;6.786;2023-02-15T00:36:41;23.40;;;12.37;;
10582;SDS011;33679;51.218;6.786;2023-02-15T00:39:13;30.67;;;12.70;;
10582;SDS011;33679;51.218;6.786;2023-02-15T00:41:47;24.43;;;12.93;;
10582;SDS011;33679;51.218;6.786;2023-02-15T00:44:21;24.50;;;13.27;;
10582;SDS011;33679;51.218;6.786;2023-02-15T00:46:55;25.83;;;12.70;;
10582;SDS011;33679;51.218;6.786;2023-02-15T00:49:32;27.47;;;13.63;;
10582;SDS011;33679;51.218;6.786;2023-02-15T00:52:06;22.40;;;12.57;;
10582;SDS011;33679;51.218;6.786;2023-02-15T00:54:39;20.30;;;11.47;;
10582;SDS011;33679;51.218;6.786;2023-02-15T00:57:15;28.13;;;13.53;;
10582;SDS011;33679;51.218;6.786;2023-02-15T00:59:47;25.73;;;12.90;;
10582;SDS011;33679;51.218;6.786;2023-02-15T01:02:20;25.87;;;12.43;;
10582;SDS011;33679;51.218;6.786;2023-02-15T01:04:52;29.60;;;14.47;;
10582;SDS011;33679;51.218;6.786;2023-02-15T01:07:28;26.07;;;12.80;;
10582;SDS011;33679;51.218;6.786;2023-02-15T01:10:03;23.13;;;12.60;;
10582;SDS011;33679;51.218;6.786;2023-02-15T01:12:37;29.70;;;14.23;;
10582;SDS011;33679;51.218;6.786;2023-02-15T01:15:10;29.30;;;14.13;;
10582;SDS011;33679;51.218;6.786;2023-02-15T01:17:43;24.23;;;13.73;;
10582;SDS011;33679;51.218;6.786;2023-02-15T01:20:22;26.27;;;13.37;;
10582;SDS011;33679;51.218;6.786;2023-02-15T01:22:57;27.30;;;13.57;;
10582;SDS011;33679;51.218;6.786;2023-02-15T01:25:30;27.00;;;13.90;;
10582;SDS011;33679;51.218;6.786;2023-02-15T01:28:05;26.10;;;13.70;;
10582;SDS011;33679;51.218;6.786;2023-02-15T01:30:38;22.50;;;12.47;;
10582;SDS011;33679;51.218;6.786;2023-02-15T01:33:11;25.73;;;12.70;;
10582;SDS011;33679;51.218;6.786;2023-02-15T01:35:48;28.03;;;13.87;;
10582;SDS011;33679;51.218;6.786;2023-02-15T01:38:28;28.30;;;13.47;;
10582;SDS011;33679;51.218;6.786;2023-02-15T01:41:01;25.90;;;14.20;;
10582;SDS011;33679;51.218;6.786;2023-02-15T01:43:49;29.90;;;14.77;;
10582;SDS011;33679;51.218;6.786;2023-02-15T01:46:24;28.80;;;13.20;;
10582;SDS011;33679;51.218;6.786;2023-02-15T01:49:02;26.07;;;13.97;;
10582;SDS011;33679;51.218;6.786;2023-02-15T01:51:41;24.10;;;13.97;;
10582;SDS011;33679;51.218;6.786;2023-02-15T01:54:17;22.60;;;12.53;;
10582;SDS011;33679;51.218;6.786;2023-02-15T01:56:54;23.40;;;13.10;;
10582;SDS011;33679;51.218;6.786;2023-02-15T01:59:34;24.30;;;13.27;;
10582;SDS011;33679;51.218;6.786;2023-02-15T02:02:09;26.63;;;13.50;;
10582;SDS011;33679;51.218;6.786;2023-02-15T02:04:45;26.03;;;13.93;;
10582;SDS011;33679;51.218;6.786;2023-02-15T02:07:24;26.60;;;12.80;;
10582;SDS011;33679;51.218;6.786;2023-02-15T02:09:59;32.67;;;15.57;;
10582;SDS011;33679;51.218;6.786;2023-02-15T02:12:37;24.87;;;12.77;;
10582;SDS011;33679;51.218;6.786;2023-02-15T02:15:12;23.13;;;12.07;;
10582;SDS011;33679;51.218;6.786;2023-02-15T02:17:49;25.53;;;14.10;;
10582;SDS011;33679;51.218;6.786;2023-02-15T02:20:37;24.83;;;14.13;;
10582;SDS011;33679;51.218;6.786;2023-02-15T02:23:28;29.27;;;13.93;;
10582;SDS011;33679;51.218;6.786;2023-02-15T02:29:46;25.13;;;12.10;;
10582;SDS011;33679;51.218;6.786;2023-02-15T02:36:02;26.80;;;12.30;;
10582;SDS011;33679;51.218;6.786;2023-02-15T02:38:45;24.87;;;14.10;;
10582;SDS011;33679;51.218;6.786;2023-02-15T02:41:32;29.47;;;13.67;;
10582;SDS011;33679;51.218;6.786;2023-02-15T02:44:12;27.10;;;13.90;;
10582;SDS011;33679;51.218;6.786;2023-02-15T02:46:50;23.80;;;12.00;;
10582;SDS011;33679;51.218;6.786;2023-02-15T02:49:30;23.53;;;12.70;;
10582;SDS011;33679;51.218;6.786;2023-02-15T02:52:04;27.93;;;13.87;;
10582;SDS011;33679;51.218;6.786;2023-02-15T02:54:41;22.67;;;13.07;;
10582;SDS011;33679;51.218;6.786;2023-02-15T02:57:14;25.07;;;13.43;;
10582;SDS011;33679;51.218;6.786;2023-02-15T02:59:46;25.40;;;13.07;;
10582;SDS011;33679;51.218;6.786;2023-02-15T03:02:21;22.50;;;13.73;;
10582;SDS011;33679;51.218;6.786;2023-02-15T03:04:58;23.73;;;13.40;;
10582;SDS011;33679;51.218;6.786;2023-02-15T03:07:34;25.27;;;12.33;;
10582;SDS011;33679;51.218;6.786;2023-02-15T03:10:09;26.40;;;12.50;;
10582;SDS011;33679;51.218;6.786;2023-02-15T03:12:42;29.33;;;15.30;;
10582;SDS011;33679;51.218;6.786;2023-02-15T03:15:16;26.70;;;13.70;;
10582;SDS011;33679;51.218;6.786;2023-02-15T03:17:54;30.00;;;14.00;;
10582;SDS011;33679;51.218;6.786;2023-02-15T03:20:31;25.40;;;14.23;;
10582;SDS011;33679;51.218;6.786;2023-02-15T03:23:09;28.03;;;13.67;;
10582;SDS011;33679;51.218;6.786;2023-02-15T03:25:50;23.63;;;12.70;;
10582;SDS011;33679;51.218;6.786;2023-02-15T03:28:31;23.43;;;12.87;;
10582;SDS011;33679;51.218;6.786;2023-02-15T03:31:07;26.57;;;13.03;;
10582;SDS011;33679;51.218;6.786;2023-02-15T03:33:42;24.63;;;13.53;;
10582;SDS011;33679;51.218;6.786;2023-02-15T03:36:22;26.73;;;13.57;;
10582;SDS011;33679;51.218;6.786;2023-02-15T03:39:03;26.10;;;13.20;;
10582;SDS011;33679;51.218;6.786;2023-02-15T03:41:42;26.70;;;13.07;;
10582;SDS011;33679;51.218;6.786;2023-02-15T03:44:23;26.47;;;14.00;;
10582;SDS011;33679;51.218;6.786;2023-02-15T03:47:05;30.10;;;14.80;;
10582;SDS011;33679;51.218;6.786;2023-02-15T03:49:41;23.80;;;12.40;;
10582;SDS011;33679;51.218;6.786;2023-02-15T03:52:18;27.13;;;12.80;;
10582;SDS011;33679;51.218;6.786;2023-02-15T03:54:54;26.53;;;14.00;;
10582;SDS011;33679;51.218;6.786;2023-02-15T03:57:28;25.67;;;13.37;;
10582;SDS011;33679;51.218;6.786;2023-02-15T04:00:19;26.67;;;12.90;;
10582;SDS011;33679;51.218;6.786;2023-02-15T04:03:18;28.63;;;13.67;;
10582;SDS011;33679;51.218;6.786;2023-02-15T04:06:01;28.57;;;14.80;;
10582;SDS011;33679;51.218;6.786;2023-02-15T04:08:37;21.90;;;11.57;;
10582;SDS011;33679;51.218;6.786;2023-02-15T04:11:27;25.80;;;13.57;;
10582;SDS011;33679;51.218;6.786;2023-02-15T04:14:02;24.73;;;12.90;;
10582;SDS011;33679;51.218;6.786;2023-02-15T04:16:54;24.30;;;13.83;;
10582;SDS011;33679;51.218;6.786;2023-02-15T04:19:25;26.30;;;12.17;;
10582;SDS011;33679;51.218;6.786;2023-02-15T04:22:15;24.13;;;13.00;;
10582;SDS011;33679;51.218;6.786;2023-02-15T04:25:06;24.23;;;13.20;;
10582;SDS011;33679;51.218;6.786;2023-02-15T04:27:43;29.27;;;14.63;;
10582;SDS011;33679;51.218;6.786;2023-02-15T04:30:17;25.60;;;13.30;;
10582;SDS011;33679;51.218;6.786;2023-02-15T04:32:53;33.13;;;15.60;;
10582;SDS011;33679;51.218;6.786;2023-02-15T04:35:25;24.50;;;13.43;;
10582;SDS011;33679;51.218;6.786;2023-02-15T04:37:57;24.67;;;13.33;;
10582;SDS011;33679;51.218;6.786;2023-02-15T04:40:33;28.40;;;13.60;;
10582;SDS011;33679;51.218;6.786;2023-02-15T04:43:09;23.10;;;12.33;;
10582;SDS011;33679;51.218;6.786;2023-02-15T04:45:41;25.60;;;14.37;;
10582;SDS011;33679;51.218;6.786;2023-02-15T04:48:21;24.27;;;12.97;;
10582;SDS011;33679;51.218;6.786;2023-02-15T04:50:55;28.17;;;12.90;;
10582;SDS011;33679;51.218;6.786;2023-02-15T04:53:29;27.43;;;13.03;;
10582;SDS011;33679;51.218;6.786;2023-02-15T04:56:02;28.83;;;14.03;;
10582;SDS011;33679;51.218;6.786;2023-02-15T04:58:37;24.53;;;13.20;;
10582;SDS011;33679;51.218;6.786;2023-02-15T05:01:11;28.40;;;14.13;;
10582;SDS011;33679;51.218;6.786;2023-02-15T05:03:46;26.13;;;12.77;;
10582;SDS011;33679;51.218;6.786;2023-02-15T05:06:18;27.20;;;14.03;;
10582;SDS011;33679;51.218;6.786;2023-02-15T05:08:51;26.17;;;14.17;;
10582;SDS011;33679;51.218;6.786;2023-02-15T05:11:25;31.57;;;13.67;;
10582;SDS011;33679;51.218;6.786;2023-02-15T05:14:00;30.70;;;14.53;;
10582;SDS011;33679;51.218;6.786;2023-02-15T05:16:32;28.30;;;13.80;;
10582;SDS011;33679;51.218;6.786;2023-02-15T05:19:07;23.37;;;12.67;;
10582;SDS011;33679;51.218;6.786;2023-02-15T05:21:44;28.03;;;13.03;;
10582;SDS011;33679;51.218;6.786;2023-02-15T05:24:17;26.30;;;13.37;;
10582;SDS011;33679;51.218;6.786;2023-02-15T05:27:22;24.57;;;12.23;;
10582;SDS011;33679;51.218;6.786;2023-02-15T05:30:13;26.17;;;14.47;;
10582;SDS011;33679;51.218;6.786;2023-02-15T05:32:47;26.60;;;12.60;;
10582;SDS011;33679;51.218;6.786;2023-02-15T05:35:19;23.60;;;13.03;;
10582;SDS011;33679;51.218;6.786;2023-02-15T05:37:52;27.97;;;14.90;;
10582;SDS011;33679;51.218;6.786;2023-02-15T05:40:24;20.70;;;11.70;;
10582;SDS011;33679;51.218;6.786;2023-02-15T05:42:58;27.73;;;13.40;;
10582;SDS011;33679;51.218;6.786;2023-02-15T05:45:31;21.83;;;12.10;;
10582;SDS011;33679;51.218;6.786;2023-02-15T05:48:03;25.90;;;12.90;;
10582;SDS011;33679;51.218;6.786;2023-02-15T05:50:36;25.70;;;13.10;;
10582;SDS011;33679;51.218;6.786;2023-02-15T05:53:08;21.63;;;12.13;;
10582;SDS011;33679;51.218;6.786;2023-02-15T05:55:41;25.60;;;12.37;;
10582;SDS011;33679;51.218;6.786;2023-02-15T05:58:16;24.00;;;12.60;;
10582;SDS011;33679;51.218;6.786;2023-02-15T06:00:49;23.57;;;12.77;;
10582;SDS011;33679;51.218;6.786;2023-02-15T06:03:22;27.93;;;13.33;;
10582;SDS011;33679;51.218;6.786;2023-02-15T06:05:58;25.73;;;11.70;;
10582;SDS011;33679;51.218;6.786;2023-02-15T06:08:30;23.33;;;11.97;;
10582;SDS011;33679;51.218;6.786;2023-02-15T06:11:03;21.70;;;10.93;;
10582;SDS011;33679;51.218;6.786;2023-02-15T06:13:37;23.77;;;12.10;;
10582;SDS011;33679;51.218;6.786;2023-02-15T06:16:10;27.17;;;13.90;;
10582;SDS011;33679;51.218;6.786;2023-02-15T06:18:42;20.20;;;11.63;;
10582;SDS011;33679;51.218;6.786;2023-02-15T06:21:18;20.30;;;11.27;;
10582;SDS011;33679;51.218;6.786;2023-02-15T06:23:56;23.27;;;13.20;;
10582;SDS011;33679;51.218;6.786;2023-02-15T06:26:29;23.93;;;13.30;;
10582;SDS011;33679;51.218;6.786;2023-02-15T06:29:05;26.60;;;12.97;;
10582;SDS011;33679;51.218;6.786;2023-02-15T06:31:51;25.27;;;12.73;;
10582;SDS011;33679;51.218;6.786;2023-02-15T06:34:33;25.73;;;11.83;;
10582;SDS011;33679;51.218;6.786;2023-02-15T06:37:05;29.93;;;13.03;;
10582;SDS011;33679;51.218;6.786;2023-02-15T06:39:39;24.83;;;11.73;;
10582;SDS011;33679;51.218;6.786;2023-02-15T06:42:11;24.87;;;12.80;;
10582;SDS011;33679;51.218;6.786;2023-02-15T06:44:45;23.40;;;11.43;;
10582;SDS011;33679;51.218;6.786;2023-02-15T06:47:17;26.23;;;12.27;;
10582;SDS011;33679;51.218;6.786;2023-02-15T06:49:49;22.67;;;12.23;;
10582;SDS011;33679;51.218;6.786;2023-02-15T06:52:21;29.60;;;13.40;;
10582;SDS011;33679;51.218;6.786;2023-02-15T06:54:54;22.10;;;12.40;;
10582;SDS011;33679;51.218;6.786;2023-02-15T06:57:26;25.30;;;12.30;;
10582;SDS011;33679;51.218;6.786;2023-02-15T07:00:00;29.47;;;14.30;;
10582;SDS011;33679;51.218;6.786;2023-02-15T07:02:35;23.33;;;11.90;;
10582;SDS011;33679;51.218;6.786;2023-02-15T07:05:07;18.50;;;10.43;;
10582;SDS011;33679;51.218;6.786;2023-02-15T07:07:40;22.40;;;12.37;;
10582;SDS011;33679;51.218;6.786;2023-02-15T07:10:12;20.40;;;11.20;;
10582;SDS011;33679;51.218;6.786;2023-02-15T07:12:45;23.03;;;11.13;;
10582;SDS011;33679;51.218;6.786;2023-02-15T07:15:25;21.13;;;11.50;;
10582;SDS011;33679;51.218;6.786;2023-02-15T07:17:57;23.53;;;12.47;;
10582;SDS011;33679;51.218;6.786;2023-02-15T07:20:30;20.30;;;12.33;;
10582;SDS011;33679;51.218;6.786;2023-02-15T07:23:03;22.30;;;11.73;;
10582;SDS011;33679;51.218;6.786;2023-02-15T07:25:36;20.50;;;10.73;;
10582;SDS011;33679;51.218;6.786;2023-02-15T07:28:08;25.73;;;12.70;;
10582;SDS011;33679;51.218;6.786;2023-02-15T07:30:44;21.57;;;10.63;;
10582;SDS011;33679;51.218;6.786;2023-02-15T07:33:22;24.40;;;12.23;;
10582;SDS011;33679;51.218;6.786;2023-02-15T07:36:00;21.80;;;10.90;;
10582;SDS011;33679;51.218;6.786;2023-02-15T07:38:36;22.20;;;12.50;;
10582;SDS011;33679;51.218;6.786;2023-02-15T07:41:11;24.00;;;12.20;;
10582;SDS011;33679;51.218;6.786;2023-02-15T07:43:44;22.23;;;10.13;;
10582;SDS011;33679;51.218;6.786;2023-02-15T07:46:19;20.10;;;10.93;;
10582;SDS011;33679;51.218;6.786;2023-02-15T07:48:52;25.63;;;13.23;;
10582;SDS011;33679;51.218;6.786;2023-02-15T07:51:24;22.60;;;12.73;;
10582;SDS011;33679;51.218;6.786;2023-02-15T07:53:56;27.20;;;12.33;;
10582;SDS011;33679;51.218;6.786;2023-02-15T07:56:29;17.20;;;9.80;;
10582;SDS011;33679;51.218;6.786;2023-02-15T07:59:03;18.03;;;9.57;;
10582;SDS011;33679;51.218;6.786;2023-02-15T08:01:38;24.53;;;11.73;;
10582;SDS011;33679;51.218;6.786;2023-02-15T08:04:11;18.50;;;10.17;;
10582;SDS011;33679;51.218;6.786;2023-02-15T08:06:43;21.43;;;11.30;;
10582;SDS011;33679;51.218;6.786;2023-02-15T08:09:16;18.77;;;9.90;;
10582;SDS011;33679;51.218;6.786;2023-02-15T08:11:48;19.23;;;9.80;;
10582;SDS011;33679;51.218;6.786;2023-02-15T08:14:21;21.23;;;10.60;;
10582;SDS011;33679;51.218;6.786;2023-02-15T08:16:55;17.97;;;10.67;;
10582;SDS011;33679;51.218;6.786;2023-02-15T08:19:33;22.13;;;10.57;;
10582;SDS011;33679;51.218;6.786;2023-02-15T08:22:07;19.77;;;10.93;;
10582;SDS011;33679;51.218;6.786;2023-02-15T08:24:45;23.37;;;10.87;;
10582;SDS011;33679;51.218;6.786;2023-02-15T08:27:18;23.20;;;11.63;;
10582;SDS011;33679;51.218;6.786;2023-02-15T08:29:56;21.23;;;10.90;;
10582;SDS011;33679;51.218;6.786;2023-02-15T08:32:30;20.87;;;11.00;;
10582;SDS011;33679;51.218;6.786;2023-02-15T08:35:03;25.10;;;12.23;;
10582;SDS011;33679;51.218;6.786;2023-02-15T08:37:36;17.50;;;10.40;;
10582;SDS011;33679;51.218;6.786;2023-02-15T08:40:10;21.93;;;11.27;;
10582;SDS011;33679;51.218;6.786;2023-02-15T08:42:43;22.27;;;11.67;;
10582;SDS011;33679;51.218;6.786;2023-02-15T08:45:16;21.20;;;11.10;;
10582;SDS011;33679;51.218;6.786;2023-02-15T08:47:50;17.57;;;9.53;;
10582;SDS011;33679;51.218;6.786;2023-02-15T08:50:23;20.63;;;10.90;;
10582;SDS011;33679;51.218;6.786;2023-02-15T08:52:55;20.60;;;10.77;;
10582;SDS011;33679;51.218;6.786;2023-02-15T08:55:29;23.40;;;12.20;;
10582;SDS011;33679;51.218;6.786;2023-02-15T08:58:01;17.33;;;10.10;;
10582;SDS011;33679;51.218;6.786;2023-02-15T09:00:34;22.03;;;10.30;;
10582;SDS011;33679;51.218;6.786;2023-02-15T09:03:08;17.43;;;10.97;;
10582;SDS011;33679;51.218;6.786;2023-02-15T09:05:41;18.60;;;9.90;;
10582;SDS011;33679;51.218;6.786;2023-02-15T09:08:14;17.27;;;10.30;;
10582;SDS011;33679;51.218;6.786;2023-02-15T09:10:46;19.17;;;9.87;;
10582;SDS011;33679;51.218;6.786;2023-02-15T09:13:18;22.63;;;10.60;;
10582;SDS011;33679;51.218;6.786;2023-02-15T09:15:51;27.87;;;13.47;;
10582;SDS011;33679;51.218;6.786;2023-02-15T09:18:33;22.27;;;11.17;;
10582;SDS011;33679;51.218;6.786;2023-02-15T09:21:08;20.43;;;10.20;;
10582;SDS011;33679;51.218;6.786;2023-02-15T09:23:46;22.30;;;10.43;;
10582;SDS011;33679;51.218;6.786;2023-02-15T09:26:20;19.10;;;10.00;;
10582;SDS011;33679;51.218;6.786;2023-02-15T09:28:57;20.00;;;10.90;;
10582;SDS011;33679;51.218;6.786;2023-02-15T09:31:32;18.33;;;10.17;;
10582;SDS011;33679;51.218;6.786;2023-02-15T09:34:09;21.90;;;10.60;;
10582;SDS011;33679;51.218;6.786;2023-02-15T09:36:42;19.63;;;10.10;;
10582;SDS011;33679;51.218;6.786;2023-02-15T09:39:15;21.27;;;9.97;;
10582;SDS011;33679;51.218;6.786;2023-02-15T09:42:07;18.27;;;9.50;;
10582;SDS011;33679;51.218;6.786;2023-02-15T09:48:15;22.17;;;10.33;;
10582;SDS011;33679;51.218;6.786;2023-02-15T09:54:33;19.17;;;10.53;;
10582;SDS011;33679;51.218;6.786;2023-02-15T09:57:22;17.33;;;10.00;;
10582;SDS011;33679;51.218;6.786;2023-02-15T10:00:05;17.33;;;9.57;;
10582;SDS011;33679;51.218;6.786;2023-02-15T10:02:49;15.70;;;9.30;;
10582;SDS011;33679;51.218;6.786;2023-02-15T10:05:38;18.00;;;10.50;;
10582;SDS011;33679;51.218;6.786;2023-02-15T10:08:46;18.37;;;9.47;;
10582;SDS011;33679;51.218;6.786;2023-02-15T10:11:34;27.07;;;11.57;;
10582;SDS011;33679;51.218;6.786;2023-02-15T10:14:29;19.77;;;11.50;;
10582;SDS011;33679;51.218;6.786;2023-02-15T10:17:14;18.27;;;9.77;;
10582;SDS011;33679;51.218;6.786;2023-02-15T10:19:56;21.30;;;11.43;;
10582;SDS011;33679;51.218;6.786;2023-02-15T10:22:45;16.87;;;9.37;;
10582;SDS011;33679;51.218;6.786;2023-02-15T10:25:33;17.37;;;9.87;;
10582;SDS011;33679;51.218;6.786;2023-02-15T10:28:15;19.10;;;9.37;;
10582;SDS011;33679;51.218;6.786;2023-02-15T10:30:51;17.43;;;9.07;;
10582;SDS011;33679;51.218;6.786;2023-02-15T10:33:32;16.80;;;9.20;;
10582;SDS011;33679;51.218;6.786;2023-02-15T10:36:13;18.17;;;9.10;;
10582;SDS011;33679;51.218;6.786;2023-02-15T10:39:02;19.20;;;10.40;;
10582;SDS011;33679;51.218;6.786;2023-02-15T10:41:44;19.50;;;9.90;;
10582;SDS011;33679;51.218;6.786;2023-02-15T10:44:44;18.83;;;9.33;;
10582;SDS011;33679;51.218;6.786;2023-02-15T10:47:38;19.80;;;9.23;;
10582;SDS011;33679;51.218;6.786;2023-02-15T10:50:26;16.73;;;9.80;;
10582;SDS011;33679;51.218;6.786;2023-02-15T10:53:10;15.27;;;9.00;;
10582;SDS011;33679;51.218;6.786;2023-02-15T10:55:53;15.97;;;8.60;;
10582;SDS011;33679;51.218;6.786;2023-02-15T10:58:35;15.23;;;9.00;;
10582;SDS011;33679;51.218;6.786;2023-02-15T11:01:22;16.00;;;9.30;;
10582;SDS011;33679;51.218;6.786;2023-02-15T11:07:23;16.90;;;8.83;;
10582;SDS011;33679;51.218;6.786;2023-02-15T11:10:00;16.63;;;9.43;;
10582;SDS011;33679;51.218;6.786;2023-02-15T11:12:40;17.13;;;10.03;;
10582;SDS011;33679;51.218;6.786;2023-02-15T11:15:17;19.70;;;9.60;;
10582;SDS011;33679;51.218;6.786;2023-02-15T11:17:57;19.50;;;9.90;;
10582;SDS011;33679;51.218;6.786;2023-02-15T11:20:37;22.90;;;10.50;;
10582;SDS011;33679;51.218;6.786;2023-02-15T11:23:14;16.20;;;9.40;;
10582;SDS011;33679;51.218;6.786;2023-02-15T11:25:56;24.00;;;10.73;;
10582;SDS011;33679;51.218;6.786;2023-02-15T11:28:37;18.30;;;9.63;;
10582;SDS011;33679;51.218;6.786;2023-02-15T11:34:18;19.33;;;9.20;;
10582;SDS011;33679;51.218;6.786;2023-02-15T11:36:58;14.50;;;9.03;;
10582;SDS011;33679;51.218;6.786;2023-02-15T11:39:36;16.60;;;8.87;;
10582;SDS011;33679;51.218;6.786;2023-02-15T11:42:09;12.77;;;8.33;;
10582;SDS011;33679;51.218;6.786;2023-02-15T11:44:51;16.27;;;9.43;;
10582;SDS011;33679;51.218;6.786;2023-02-15T11:47:35;18.80;;;9.13;;
10582;SDS011;33679;51.218;6.786;2023-02-15T11:50:10;18.83;;;8.80;;
10582;SDS011;33679;51.218;6.786;2023-02-15T11:52:46;13.30;;;7.97;;
10582;SDS011;33679;51.218;6.786;2023-02-15T11:55:16;15.27;;;8.80;;
10582;SDS011;33679;51.218;6.786;2023-02-15T11:57:53;14.07;;;7.97;;
10582;SDS011;33679;51.218;6.786;2023-02-15T12:00:31;14.10;;;8.83;;
10582;SDS011;33679;51.218;6.786;2023-02-15T12:03:12;17.63;;;8.47;;
10582;SDS011;33679;51.218;6.786;2023-02-15T12:05:49;14.97;;;8.20;;
10582;SDS011;33679;51.218;6.786;2023-02-15T12:08:25;17.40;;;9.80;;
10582;SDS011;33679;51.218;6.786;2023-02-15T12:11:05;16.37;;;8.40;;
10582;SDS011;33679;51.218;6.786;2023-02-15T12:13:55;18.50;;;8.57;;
10582;SDS011;33679;51.218;6.786;2023-02-15T12:16:32;21.17;;;10.50;;
10582;SDS011;33679;51.218;6.786;2023-02-15T12:19:18;17.13;;;9.67;;
10582;SDS011;33679;51.218;6.786;2023-02-15T12:22:01;17.93;;;9.17;;
10582;SDS011;33679;51.218;6.786;2023-02-15T12:24:36;16.97;;;8.50;;
10582;SDS011;33679;51.218;6.786;2023-02-15T12:27:16;12.57;;;7.67;;
10582;SDS011;33679;51.218;6.786;2023-02-15T12:29:52;13.50;;;7.70;;
10582;SDS011;33679;51.218;6.786;2023-02-15T12:32:30;14.93;;;8.17;;
10582;SDS011;33679;51.218;6.786;2023-02-15T12:35:14;12.00;;;7.80;;
10582;SDS011;33679;51.218;6.786;2023-02-15T12:37:54;14.23;;;8.60;;
10582;SDS011;33679;51.218;6.786;2023-02-15T12:40:28;15.80;;;8.10;;
10582;SDS011;33679;51.218;6.786;2023-02-15T12:43:01;18.00;;;7.83;;
10582;SDS011;33679;51.218;6.786;2023-02-15T12:45:39;14.87;;;7.23;;
10582;SDS011;33679;51.218;6.786;2023-02-15T12:48:15;13.50;;;8.40;;
10582;SDS011;33679;51.218;6.786;2023-02-15T12:50:51;15.00;;;8.43;;
10582;SDS011;33679;51.218;6.786;2023-02-15T12:53:40;17.30;;;8.77;;
10582;SDS011;33679;51.218;6.786;2023-02-15T12:56:16;15.83;;;8.20;;
10582;SDS011;33679;51.218;6.786;2023-02-15T12:59:03;18.90;;;9.70;;
10582;SDS011;33679;51.218;6.786;2023-02-15T13:01:39;15.13;;;8.33;;
10582;SDS011;33679;51.218;6.786;2023-02-15T13:04:18;12.97;;;7.17;;
10582;SDS011;33679;51.218;6.786;2023-02-15T13:06:56;13.70;;;7.23;;
10582;SDS011;33679;51.218;6.786;2023-02-15T13:09:35;13.60;;;7.77;;
10582;SDS011;33679;51.218;6.786;2023-02-15T13:12:15;14.50;;;8.17;;
10582;SDS011;33679;51.218;6.786;2023-02-15T13:14:53;16.93;;;8.60;;
10582;SDS011;33679;51.218;6.786;2023-02-15T13:17:29;12.10;;;8.40;;
10582;SDS011;33679;51.218;6.786;2023-02-15T13:20:05;13.63;;;9.30;;
10582;SDS011;33679;51.218;6.786;2023-02-15T13:22:48;13.73;;;7.73;;
10582;SDS011;33679;51.218;6.786;2023-02-15T13:25:30;14.67;;;7.13;;
10582;SDS011;33679;51.218;6.786;2023-02-15T13:28:06;13.57;;;7.57;;
10582;SDS011;33679;51.218;6.786;2023-02-15T13:30:46;16.83;;;8.20;;
10582;SDS011;33679;51.218;6.786;2023-02-15T13:33:22;12.53;;;7.30;;
10582;SDS011;33679;51.218;6.786;2023-02-15T13:36:09;15.63;;;8.37;;
10582;SDS011;33679;51.218;6.786;2023-02-15T13:38:54;14.30;;;7.80;;
10582;SDS011;33679;51.218;6.786;2023-02-15T13:41:43;14.43;;;8.53;;
10582;SDS011;33679;51.218;6.786;2023-02-15T13:44:41;16.80;;;8.73;;
10582;SDS011;33679;51.218;6.786;2023-02-15T13:47:28;14.40;;;7.10;;
10582;SDS011;33679;51.218;6.786;2023-02-15T13:50:12;18.90;;;9.30;;
10582;SDS011;33679;51.218;6.786;2023-02-15T13:52:55;14.50;;;7.57;;
10582;SDS011;33679;51.218;6.786;2023-02-15T13:55:42;15.63;;;7.47;;
10582;SDS011;33679;51.218;6.786;2023-02-15T13:58:27;17.67;;;7.87;;
10582;SDS011;33679;51.218;6.786;2023-02-15T14:01:18;13.10;;;7.70;;
10582;SDS011;33679;51.218;6.786;2023-02-15T14:10:46;11.77;;;7.20;;
10582;SDS011;33679;51.218;6.786;2023-02-15T14:17:15;11.87;;;6.30;;
10582;SDS011;33679;51.218;6.786;2023-02-15T14:19:57;14.77;;;7.20;;
10582;SDS011;33679;51.218;6.786;2023-02-15T14:22:34;16.13;;;8.80;;
10582;SDS011;33679;51.218;6.786;2023-02-15T14:25:17;15.57;;;7.77;;
10582;SDS011;33679;51.218;6.786;2023-02-15T14:28:01;13.83;;;7.40;;
10582;SDS011;33679;51.218;6.786;2023-02-15T14:30:43;13.70;;;8.07;;
10582;SDS011;33679;51.218;6.786;2023-02-15T14:33:25;17.43;;;9.43;;
10582;SDS011;33679;51.218;6.786;2023-02-15T14:36:04;14.00;;;7.50;;
10582;SDS011;33679;51.218;6.786;2023-02-15T14:38:48;12.27;;;7.00;;
10582;SDS011;33679;51.218;6.786;2023-02-15T14:41:31;10.80;;;6.87;;
10582;SDS011;33679;51.218;6.786;2023-02-15T14:44:15;14.90;;;8.27;;
10582;SDS011;33679;51.218;6.786;2023-02-15T14:46:57;12.20;;;6.80;;
10582;SDS011;33679;51.218;6.786;2023-02-15T14:49:37;12.40;;;7.60;;
10582;SDS011;33679;51.218;6.786;2023-02-15T14:52:11;11.77;;;7.03;;
10582;SDS011;33679;51.218;6.786;2023-02-15T14:54:59;11.30;;;7.30;;
10582;SDS011;33679;51.218;6.786;2023-02-15T14:57:34;15.53;;;8.70;;
10582;SDS011;33679;51.218;6.786;2023-02-15T15:03:23;16.27;;;8.23;;
10582;SDS011;33679;51.218;6.786;2023-02-15T15:05:59;16.57;;;9.40;;
10582;SDS011;33679;51.218;6.786;2023-02-15T15:08:36;17.00;;;8.90;;
10582;SDS011;33679;51.218;6.786;2023-02-15T15:14:39;13.70;;;7.10;;
10582;SDS011;33679;51.218;6.786;2023-02-15T15:17:41;15.00;;;8.13;;
10582;SDS011;33679;51.218;6.786;2023-02-15T15:20:44;12.00;;;7.00;;
10582;SDS011;33679;51.218;6.786;2023-02-15T15:26:26;17.70;;;8.93;;
10582;SDS011;33679;51.218;6.786;2023-02-15T15:29:01;13.00;;;7.70;;
10582;SDS011;33679;51.218;6.786;2023-02-15T15:31:39;14.50;;;6.93;;
10582;SDS011;33679;51.218;6.786;2023-02-15T15:47:30;11.83;;;6.77;;
10582;SDS011;33679;51.218;6.786;2023-02-15T15:53:26;18.97;;;8.40;;
10582;SDS011;33679;51.218;6.786;2023-02-15T15:56:05;17.07;;;7.70;;
10582;SDS011;33679;51.218;6.786;2023-02-15T15:58:42;14.50;;;7.90;;
10582;SDS011;33679;51.218;6.786;2023-02-15T16:01:25;14.97;;;8.10;;
10582;SDS011;33679;51.218;6.786;2023-02-15T16:03:59;14.53;;;8.20;;
10582;SDS011;33679;51.218;6.786;2023-02-15T16:06:35;19.00;;;8.73;;
10582;SDS011;33679;51.218;6.786;2023-02-15T16:13:28;12.37;;;7.40;;
10582;SDS011;33679;51.218;6.786;2023-02-15T16:16:48;18.90;;;9.27;;
10582;SDS011;33679;51.218;6.786;2023-02-15T16:19:39;18.93;;;8.50;;
10582;SDS011;33679;51.218;6.786;2023-02-15T16:22:24;13.03;;;8.13;;
10582;SDS011;33679;51.218;6.786;2023-02-15T16:28:47;16.47;;;9.00;;
10582;SDS011;33679;51.218;6.786;2023-02-15T16:36:00;16.10;;;9.20;;
10582;SDS011;33679;51.218;6.786;2023-02-15T16:39:16;12.87;;;8.20;;